Time;durP1;ratioP1;P1;durP2;ratioP2;P2;SDS_P1;SDS_P2;PMS_P1;PMS_P2;Temp;Humidity;BMP_temperature;BMP_pressure;BME280_temperature;BME280_humidity;BME280_pressure;Samples;Min_cycle;Max_cycle;Signal;HPM_P1;HPM_P2
2021/05/09 00:01:00;;;;;;;4.28;2.70;;;12.90;99.90;;;;;;5034573;28;20220;-75
2021/05/09 00:03:26;;;;;;;2.85;2.63;;;12.70;99.90;;;;;;5034563;28;20682;-75
2021/05/09 00:05:52;;;;;;;3.00;2.70;;;12.60;99.90;;;;;;5034139;28;20234;-75
2021/05/09 00:08:19;;;;;;;3.10;2.63;;;12.60;99.90;;;;;;5034272;28;20303;-75
2021/05/09 00:10:45;;;;;;;2.97;2.72;;;12.60;99.90;;;;;;5034531;28;20227;-75
2021/05/09 00:13:12;;;;;;;3.72;2.80;;;12.60;99.90;;;;;;5034186;28;20199;-76
2021/05/09 00:15:39;;;;;;;3.55;3.15;;;12.60;99.90;;;;;;5034271;28;20255;-75
2021/05/09 00:18:05;;;;;;;2.92;2.63;;;12.60;99.90;;;;;;5034239;28;20686;-75
2021/05/09 00:20:32;;;;;;;3.03;2.72;;;12.60;99.90;;;;;;5033929;28;20311;-76
2021/05/09 00:22:58;;;;;;;3.40;3.10;;;12.60;99.90;;;;;;5034335;28;20295;-75
2021/05/09 00:25:25;;;;;;;3.35;2.60;;;12.60;99.90;;;;;;5033768;28;20315;-76
2021/05/09 00:27:51;;;;;;;3.67;2.90;;;12.50;99.90;;;;;;5034032;28;20295;-75
2021/05/09 00:30:19;;;;;;;3.72;2.75;;;12.40;99.90;;;;;;5034179;28;20200;-76
2021/05/09 00:32:46;;;;;;;5.68;3.22;;;12.40;99.90;;;;;;5033809;28;20216;-75
2021/05/09 00:35:12;;;;;;;2.80;2.45;;;12.50;99.90;;;;;;5034027;28;20602;-75
2021/05/09 00:37:39;;;;;;;2.85;2.65;;;12.60;99.90;;;;;;5033861;28;20290;-75
2021/05/09 00:40:06;;;;;;;3.25;2.95;;;12.50;99.90;;;;;;5033931;28;20298;-75
2021/05/09 00:42:33;;;;;;;8.07;2.90;;;12.50;99.90;;;;;;5033755;28;20203;-75
2021/05/09 00:44:59;;;;;;;2.72;2.40;;;12.50;99.90;;;;;;5033781;28;20311;-75
2021/05/09 00:47:27;;;;;;;2.83;2.63;;;12.60;99.90;;;;;;5033754;28;20290;-75
2021/05/09 00:49:53;;;;;;;2.95;2.47;;;12.60;99.90;;;;;;5033741;28;20298;-75
2021/05/09 00:52:20;;;;;;;2.75;2.50;;;12.60;99.90;;;;;;5033629;28;20291;-75
2021/05/09 00:54:52;;;;;;;2.35;2.15;;;12.50;99.90;;;;;;5033517;28;20314;-75
2021/05/09 00:57:20;;;;;;;2.30;2.10;;;12.50;99.90;;;;;;5033669;28;20566;-75
2021/05/09 00:59:50;;;;;;;3.55;2.70;;;12.50;99.90;;;;;;5033662;28;20208;-75
2021/05/09 01:02:16;;;;;;;2.80;2.60;;;12.40;99.90;;;;;;5033575;28;20220;-75
2021/05/09 01:04:44;;;;;;;4.00;2.33;;;12.40;99.90;;;;;;5033601;28;20319;-75
2021/05/09 01:07:12;;;;;;;2.53;2.33;;;12.40;99.90;;;;;;5033487;28;20200;-75
2021/05/09 01:09:38;;;;;;;3.65;2.53;;;12.30;99.90;;;;;;5033613;28;20212;-75
2021/05/09 01:12:06;;;;;;;2.33;2.15;;;12.30;99.90;;;;;;5033478;28;20236;-75
2021/05/09 01:14:32;;;;;;;4.63;2.42;;;12.10;99.90;;;;;;5033402;28;20739;-76
2021/05/09 01:16:58;;;;;;;4.13;2.60;;;12.20;99.90;;;;;;5033369;28;20200;-75
2021/05/09 01:19:24;;;;;;;3.22;2.13;;;12.20;99.90;;;;;;5036590;28;20262;-75
2021/05/09 01:21:52;;;;;;;2.38;2.08;;;12.20;99.90;;;;;;5040041;28;20330;-75
2021/05/09 01:24:18;;;;;;;3.33;2.40;;;12.30;99.90;;;;;;5039972;28;20227;-75
2021/05/09 01:26:44;;;;;;;2.17;2.08;;;12.30;99.90;;;;;;5039974;28;20214;-75
2021/05/09 01:29:11;;;;;;;3.00;2.45;;;12.20;99.90;;;;;;5040023;28;20206;-75
2021/05/09 01:31:37;;;;;;;2.40;2.20;;;12.30;99.90;;;;;;5039684;28;20222;-76
2021/05/09 01:34:04;;;;;;;5.28;2.30;;;12.30;99.90;;;;;;5039685;28;20295;-75
2021/05/09 01:36:30;;;;;;;3.20;2.15;;;12.20;99.90;;;;;;5039740;28;20290;-75
2021/05/09 01:38:57;;;;;;;4.68;2.67;;;12.30;99.90;;;;;;5039987;28;20298;-76
2021/05/09 01:41:24;;;;;;;2.25;2.05;;;12.30;99.90;;;;;;5039876;28;20363;-76
2021/05/09 01:43:51;;;;;;;2.53;2.33;;;12.00;99.90;;;;;;5039891;28;20589;-75
2021/05/09 01:46:17;;;;;;;4.40;2.78;;;12.00;99.90;;;;;;5039360;28;20306;-75
2021/05/09 01:48:43;;;;;;;2.25;2.08;;;11.90;99.90;;;;;;5039856;28;20310;-75
2021/05/09 01:51:10;;;;;;;2.33;2.05;;;12.10;99.90;;;;;;5039830;28;20207;-75
2021/05/09 01:53:37;;;;;;;2.28;2.08;;;12.20;99.90;;;;;;5039672;28;20290;-75
2021/05/09 01:56:05;;;;;;;2.25;2.05;;;12.20;99.90;;;;;;5039618;28;20231;-76
2021/05/09 01:58:31;;;;;;;2.10;2.00;;;12.20;99.90;;;;;;5039759;28;20211;-75
2021/05/09 02:00:57;;;;;;;2.50;2.30;;;12.20;99.90;;;;;;5039682;28;20223;-75
2021/05/09 02:03:23;;;;;;;3.55;2.60;;;12.00;99.90;;;;;;5039734;28;20204;-75
2021/05/09 02:05:50;;;;;;;4.05;2.30;;;11.70;99.90;;;;;;5039511;28;20232;-75
2021/05/09 02:08:16;;;;;;;2.65;2.45;;;11.60;99.90;;;;;;5039695;28;20239;-75
2021/05/09 02:10:42;;;;;;;2.45;2.25;;;11.60;99.90;;;;;;5039653;28;20314;-75
2021/05/09 02:13:10;;;;;;;3.05;2.70;;;11.70;99.90;;;;;;5039598;28;20220;-75
2021/05/09 02:15:36;;;;;;;2.75;2.45;;;11.90;99.90;;;;;;5039489;28;20590;-75
2021/05/09 02:18:02;;;;;;;3.50;2.70;;;11.90;99.90;;;;;;5039411;28;20294;-75
2021/05/09 02:20:29;;;;;;;2.65;2.40;;;12.00;99.90;;;;;;5039546;28;20228;-75
2021/05/09 02:22:55;;;;;;;4.95;2.75;;;12.00;99.90;;;;;;5039566;28;20214;-75
2021/05/09 02:25:21;;;;;;;2.88;2.28;;;12.00;99.90;;;;;;5039279;28;20251;-75
2021/05/09 02:27:48;;;;;;;3.22;2.50;;;11.80;99.90;;;;;;5039431;28;20208;-75
2021/05/09 02:30:16;;;;;;;2.80;2.40;;;11.90;99.90;;;;;;5037888;28;20693;-76
2021/05/09 02:32:43;;;;;;;2.50;2.30;;;11.90;99.90;;;;;;5035708;28;20219;-75
2021/05/09 02:35:10;;;;;;;3.38;2.50;;;12.00;99.90;;;;;;5036012;28;20319;-75
2021/05/09 02:37:36;;;;;;;6.20;2.40;;;12.10;99.90;;;;;;5036147;28;20291;-75
2021/05/09 02:40:03;;;;;;;5.82;2.60;;;12.00;99.90;;;;;;5036207;28;20302;-75
2021/05/09 02:42:29;;;;;;;3.53;2.80;;;11.80;99.90;;;;;;5036148;28;20582;-75
2021/05/09 02:44:56;;;;;;;3.05;2.72;;;11.70;99.90;;;;;;5035850;28;20319;-75
2021/05/09 02:47:32;;;;;;;3.55;2.50;;;11.80;99.90;;;;;;5035963;28;20299;-75
2021/05/09 02:50:01;;;;;;;3.45;2.83;;;11.90;99.90;;;;;;5036113;28;20214;-75
2021/05/09 02:52:27;;;;;;;4.18;2.88;;;11.90;99.90;;;;;;5035984;28;20203;-75
2021/05/09 02:54:54;;;;;;;2.75;2.55;;;11.90;99.90;;;;;;5035816;28;20824;-75
2021/05/09 02:57:21;;;;;;;2.63;2.40;;;11.90;99.90;;;;;;5035829;28;20761;-75
2021/05/09 02:59:47;;;;;;;2.60;2.40;;;11.90;99.90;;;;;;5035878;28;20299;-76
2021/05/09 03:02:14;;;;;;;3.30;2.78;;;12.00;99.90;;;;;;5035770;28;20228;-76
2021/05/09 03:04:41;;;;;;;2.40;2.20;;;12.00;99.90;;;;;;5035551;28;20224;-75
2021/05/09 03:07:07;;;;;;;2.50;2.28;;;12.10;99.90;;;;;;5035674;28;20622;-75
2021/05/09 03:09:34;;;;;;;2.70;2.50;;;12.10;99.90;;;;;;5035706;28;20204;-75
2021/05/09 03:12:00;;;;;;;2.95;2.67;;;12.10;99.90;;;;;;5035462;28;20196;-75
2021/05/09 03:14:26;;;;;;;3.40;2.60;;;12.10;99.90;;;;;;5035427;28;20226;-75
2021/05/09 03:16:53;;;;;;;3.38;2.97;;;12.00;99.90;;;;;;5035427;28;20231;-75
2021/05/09 03:19:20;;;;;;;4.15;3.10;;;12.00;99.90;;;;;;5035485;28;20204;-75
2021/05/09 03:21:47;;;;;;;3.85;2.67;;;12.00;99.90;;;;;;5035124;28;20224;-76
2021/05/09 03:24:14;;;;;;;2.78;2.55;;;12.00;99.90;;;;;;5035077;28;20239;-75
2021/05/09 03:26:40;;;;;;;4.68;3.00;;;12.00;99.90;;;;;;5035037;28;20239;-75
2021/05/09 03:29:07;;;;;;;4.28;2.35;;;11.90;99.90;;;;;;5035352;28;20287;-75
2021/05/09 03:31:34;;;;;;;3.10;2.80;;;12.00;99.90;;;;;;5035114;28;20358;-76
2021/05/09 03:34:00;;;;;;;4.80;2.80;;;12.00;99.90;;;;;;5035150;28;20295;-76
2021/05/09 03:36:27;;;;;;;2.47;2.28;;;11.90;99.90;;;;;;5035069;28;20231;-75
2021/05/09 03:38:54;;;;;;;2.90;2.70;;;11.90;99.90;;;;;;5035164;28;20204;-75
2021/05/09 03:41:22;;;;;;;2.53;2.33;;;11.80;99.90;;;;;;5035011;28;20224;-75
2021/05/09 03:43:49;;;;;;;2.55;2.35;;;11.70;99.90;;;;;;5034818;28;20200;-76
2021/05/09 03:46:15;;;;;;;3.00;2.60;;;11.70;99.90;;;;;;5034821;28;20224;-75
2021/05/09 03:48:41;;;;;;;4.32;2.80;;;11.70;99.90;;;;;;5034978;28;20212;-75
2021/05/09 03:51:08;;;;;;;2.92;2.70;;;11.70;99.90;;;;;;5034917;28;20659;-75
2021/05/09 03:53:34;;;;;;;3.20;2.90;;;11.60;99.90;;;;;;5034947;28;20613;-76
2021/05/09 03:56:01;;;;;;;3.33;3.03;;;11.70;99.90;;;;;;5034668;28;20651;-75
2021/05/09 03:58:28;;;;;;;2.60;2.40;;;11.70;99.90;;;;;;5034780;28;20200;-76
2021/05/09 04:00:54;;;;;;;4.07;2.35;;;11.60;99.90;;;;;;5034711;28;20266;-76
2021/05/09 04:03:22;;;;;;;3.00;2.67;;;11.60;99.90;;;;;;5034700;28;20308;-75
2021/05/09 04:05:51;;;;;;;4.72;2.90;;;11.70;99.90;;;;;;5034127;28;20277;-76
2021/05/09 04:08:18;;;;;;;2.63;2.42;;;11.70;99.90;;;;;;5034547;28;20210;-75
2021/05/09 04:10:44;;;;;;;3.75;3.00;;;11.70;99.90;;;;;;5034425;28;20287;-75
2021/05/09 04:13:11;;;;;;;2.90;2.70;;;11.80;99.90;;;;;;5034389;28;20730;-75
2021/05/09 04:15:38;;;;;;;2.75;2.55;;;11.80;99.90;;;;;;5033953;28;20228;-75
2021/05/09 04:18:05;;;;;;;5.05;3.00;;;11.70;99.90;;;;;;5034324;28;20215;-76
2021/05/09 04:20:31;;;;;;;3.83;3.03;;;11.70;99.90;;;;;;5034057;28;20745;-75
2021/05/09 04:23:11;;;;;;;2.90;2.60;;;11.80;99.90;;;;;;5034358;28;20215;-76
2021/05/09 04:25:38;;;;;;;3.10;2.80;;;11.70;99.90;;;;;;5034134;28;20255;-76
2021/05/09 04:28:05;;;;;;;3.20;2.75;;;11.60;99.90;;;;;;5034211;28;20208;-76
2021/05/09 04:30:32;;;;;;;2.83;2.53;;;11.70;99.90;;;;;;5034070;28;20294;-75
2021/05/09 04:33:00;;;;;;;3.85;2.38;;;11.60;99.90;;;;;;5033776;28;20219;-75
2021/05/09 04:35:27;;;;;;;3.08;2.78;;;11.80;99.90;;;;;;5033587;28;20813;-75
2021/05/09 04:37:53;;;;;;;3.45;3.00;;;11.90;99.90;;;;;;5034031;28;20298;-76
2021/05/09 04:40:20;;;;;;;2.95;2.63;;;11.90;99.90;;;;;;5034212;28;20204;-75
2021/05/09 04:42:46;;;;;;;2.58;2.38;;;11.80;99.90;;;;;;5033895;28;20273;-75
2021/05/09 04:45:13;;;;;;;3.38;2.75;;;11.70;99.90;;;;;;5033936;28;20271;-75
2021/05/09 04:47:40;;;;;;;3.47;2.85;;;11.60;99.90;;;;;;5033763;28;20204;-75
2021/05/09 04:50:08;;;;;;;2.95;2.65;;;11.60;99.90;;;;;;5033857;28;20295;-76
2021/05/09 04:52:34;;;;;;;4.18;3.13;;;11.80;99.90;;;;;;5033823;28;20294;-76
2021/05/09 04:55:01;;;;;;;4.82;2.95;;;11.90;99.90;;;;;;5032974;28;20274;-75
2021/05/09 04:57:27;;;;;;;3.20;2.90;;;12.10;99.90;;;;;;5033599;28;20238;-75
2021/05/09 04:59:53;;;;;;;3.55;3.10;;;12.20;99.90;;;;;;5033728;28;20204;-75
2021/05/09 05:02:20;;;;;;;3.17;2.88;;;12.20;99.90;;;;;;5033698;28;20234;-76
2021/05/09 05:04:47;;;;;;;3.88;2.97;;;12.30;99.90;;;;;;5033621;28;20629;-75
2021/05/09 05:07:13;;;;;;;4.28;3.78;;;12.40;99.90;;;;;;5033549;28;20630;-75
2021/05/09 05:09:41;;;;;;;3.38;3.08;;;12.20;99.90;;;;;;5033653;28;20204;-75
2021/05/09 05:12:08;;;;;;;3.88;3.33;;;12.00;99.90;;;;;;5033523;28;20255;-75
2021/05/09 05:14:35;;;;;;;3.55;3.20;;;11.90;99.90;;;;;;5033554;28;20307;-76
2021/05/09 05:17:01;;;;;;;4.88;3.30;;;12.00;99.90;;;;;;5033226;28;20825;-76
2021/05/09 05:19:28;;;;;;;4.88;3.72;;;12.10;99.90;;;;;;5033529;28;20210;-75
2021/05/09 05:21:55;;;;;;;3.83;3.47;;;12.20;99.90;;;;;;5033476;28;20262;-75
2021/05/09 05:24:21;;;;;;;3.45;3.15;;;12.30;99.90;;;;;;5033427;28;20259;-76
2021/05/09 05:26:48;;;;;;;4.50;3.50;;;12.30;99.90;;;;;;5033297;28;20625;-75
2021/05/09 05:29:14;;;;;;;5.18;3.80;;;12.30;99.90;;;;;;5033494;28;20359;-76
2021/05/09 05:31:41;;;;;;;3.97;3.55;;;12.20;99.90;;;;;;5033197;28;20294;-76
2021/05/09 05:34:08;;;;;;;7.78;4.20;;;12.10;99.90;;;;;;5033291;28;20208;-75
2021/05/09 05:36:34;;;;;;;5.82;4.97;;;12.00;99.90;;;;;;5033311;28;20607;-75
2021/05/09 05:39:01;;;;;;;6.70;5.07;;;11.90;99.90;;;;;;5033372;28;20232;-75
2021/05/09 05:41:27;;;;;;;4.60;4.20;;;11.90;99.90;;;;;;5032886;28;20228;-76
2021/05/09 05:43:54;;;;;;;6.45;3.85;;;11.90;99.90;;;;;;5033310;28;20243;-76
2021/05/09 05:46:20;;;;;;;5.00;4.40;;;12.00;99.90;;;;;;5033048;28;20230;-75
2021/05/09 05:48:46;;;;;;;4.45;3.88;;;12.10;99.90;;;;;;5033241;28;20200;-76
2021/05/09 05:51:13;;;;;;;5.35;4.38;;;12.30;99.90;;;;;;5033187;28;20295;-76
2021/05/09 05:53:39;;;;;;;4.35;3.95;;;12.40;99.90;;;;;;5033189;28;20200;-76
2021/05/09 05:56:06;;;;;;;4.13;3.72;;;12.50;99.90;;;;;;5032843;28;20428;-75
2021/05/09 05:58:33;;;;;;;4.85;4.20;;;12.50;99.90;;;;;;5032909;28;20663;-75
2021/05/09 06:00:59;;;;;;;5.95;4.45;;;12.50;99.90;;;;;;5033072;28;20311;-76
2021/05/09 06:03:26;;;;;;;5.45;4.25;;;12.50;99.90;;;;;;5033162;28;20298;-75
2021/05/09 06:05:53;;;;;;;4.82;3.80;;;12.50;99.90;;;;;;5034948;28;20770;-76
2021/05/09 06:08:19;;;;;;;5.10;4.60;;;12.50;99.90;;;;;;5036800;28;20216;-74
2021/05/09 06:10:47;;;;;;;4.65;4.25;;;12.40;99.90;;;;;;5036483;28;20205;-75
2021/05/09 06:13:14;;;;;;;5.05;3.60;;;12.50;99.90;;;;;;5036754;28;20212;-75
2021/05/09 06:15:40;;;;;;;4.93;4.13;;;12.40;99.90;;;;;;5036584;28;20665;-75
2021/05/09 06:18:07;;;;;;;4.80;4.00;;;12.40;99.90;;;;;;5036670;28;20201;-75
2021/05/09 06:20:33;;;;;;;4.38;3.97;;;12.30;99.90;;;;;;5036433;28;20208;-75
2021/05/09 06:23:02;;;;;;;5.93;4.00;;;12.40;99.90;;;;;;5036566;28;20290;-75
2021/05/09 06:25:28;;;;;;;5.15;3.65;;;12.50;99.90;;;;;;5036033;28;20224;-75
2021/05/09 06:27:55;;;;;;;6.20;3.97;;;12.50;99.90;;;;;;5036302;28;20266;-76
2021/05/09 06:30:23;;;;;;;4.93;4.10;;;12.50;99.90;;;;;;5036442;28;20207;-76
2021/05/09 06:32:49;;;;;;;6.03;4.05;;;12.60;99.90;;;;;;5036266;28;20226;-76
2021/05/09 06:35:16;;;;;;;4.88;4.47;;;12.60;99.90;;;;;;5036765;28;20315;-76
2021/05/09 06:37:42;;;;;;;6.15;4.10;;;12.80;99.90;;;;;;5036127;28;20261;-75
2021/05/09 06:40:09;;;;;;;5.00;4.30;;;12.90;99.90;;;;;;5036305;28;20625;-75
2021/05/09 06:42:36;;;;;;;4.57;4.18;;;13.00;99.90;;;;;;5036149;28;20230;-75
2021/05/09 06:45:07;;;;;;;4.75;3.83;;;13.10;99.90;;;;;;5035983;28;20930;-76
2021/05/09 06:47:34;;;;;;;6.05;4.10;;;13.20;99.90;;;;;;5036034;28;20208;-76
2021/05/09 06:50:01;;;;;;;4.30;3.90;;;13.40;99.90;;;;;;5036103;28;20204;-76
2021/05/09 06:52:27;;;;;;;4.35;3.70;;;13.60;99.90;;;;;;5036030;28;20206;-75
2021/05/09 06:54:54;;;;;;;4.72;3.78;;;13.80;99.90;;;;;;5036369;28;20320;-76
2021/05/09 06:57:20;;;;;;;4.25;3.42;;;14.00;99.90;;;;;;5035809;28;20238;-76
2021/05/09 06:59:47;;;;;;;3.88;3.55;;;14.10;99.90;;;;;;5035953;28;20719;-76
2021/05/09 07:02:13;;;;;;;4.18;3.78;;;14.20;99.90;;;;;;5035788;28;20314;-76
2021/05/09 07:04:40;;;;;;;3.70;3.40;;;14.20;99.90;;;;;;5035711;28;20252;-75
2021/05/09 07:07:06;;;;;;;3.80;3.17;;;14.40;99.90;;;;;;5035606;28;20246;-76
2021/05/09 07:09:33;;;;;;;4.57;4.18;;;14.50;99.90;;;;;;5035512;28;20694;-76
2021/05/09 07:11:59;;;;;;;3.30;3.00;;;14.60;99.90;;;;;;5035567;28;20288;-76
2021/05/09 07:14:25;;;;;;;6.40;3.33;;;14.80;99.90;;;;;;5035561;28;20315;-76
2021/05/09 07:16:52;;;;;;;3.45;3.08;;;14.90;99.90;;;;;;5034493;28;20676;-76
2021/05/09 07:19:19;;;;;;;3.30;3.00;;;15.20;99.90;;;;;;5035519;28;20273;-76
2021/05/09 07:21:49;;;;;;;2.97;2.70;;;15.40;99.90;;;;;;5035483;28;20311;-76
2021/05/09 07:24:15;;;;;;;5.20;3.10;;;15.80;99.90;;;;;;5035205;28;20207;-75
2021/05/09 07:26:43;;;;;;;2.80;2.60;;;15.90;99.90;;;;;;5035284;28;20261;-76
2021/05/09 07:29:09;;;;;;;2.83;2.63;;;16.10;99.90;;;;;;5035379;28;20204;-76
2021/05/09 07:31:40;;;;;;;3.00;2.65;;;16.20;99.90;;;;;;5035143;28;20585;-76
2021/05/09 07:34:06;;;;;;;2.53;2.33;;;16.20;99.90;;;;;;5035235;28;20264;-76
2021/05/09 07:36:33;;;;;;;2.75;2.42;;;16.30;99.90;;;;;;5034822;28;20236;-76
2021/05/09 07:39:00;;;;;;;2.53;2.33;;;16.30;99.90;;;;;;5035189;28;20298;-76
2021/05/09 07:41:26;;;;;;;2.50;2.30;;;16.40;99.90;;;;;;5035082;28;20233;-76
2021/05/09 07:43:52;;;;;;;3.10;2.35;;;16.60;99.90;;;;;;5035067;28;20302;-76
2021/05/09 07:46:19;;;;;;;2.53;2.33;;;16.90;99.90;;;;;;5034801;28;20595;-76
2021/05/09 07:48:46;;;;;;;2.30;2.10;;;18.10;99.90;;;;;;5034967;28;20200;-76
2021/05/09 07:51:12;;;;;;;2.43;2.23;;;19.10;99.60;;;;;;5034959;28;20205;-76
2021/05/09 07:53:39;;;;;;;2.60;2.30;;;20.10;97.30;;;;;;5034888;28;20454;-76
2021/05/09 07:56:06;;;;;;;2.80;2.40;;;21.80;93.30;;;;;;5034695;28;20533;-76
2021/05/09 07:58:32;;;;;;;3.13;2.60;;;23.70;86.60;;;;;;5034806;28;20439;-77
2021/05/09 08:01:01;;;;;;;3.77;2.70;;;25.80;75.70;;;;;;5034324;28;21011;-77
2021/05/09 08:03:28;;;;;;;2.53;2.33;;;27.40;62.90;;;;;;5034712;28;20501;-77
2021/05/09 08:05:54;;;;;;;2.30;2.10;;;28.90;55.80;;;;;;5034519;28;20467;-77
2021/05/09 08:08:25;;;;;;;2.13;2.03;;;31.00;53.10;;;;;;5034601;28;20449;-77
2021/05/09 08:10:51;;;;;;;2.37;2.20;;;32.10;46.80;;;;;;5034421;28;20447;-75
2021/05/09 08:13:19;;;;;;;3.20;2.00;;;33.20;42.60;;;;;;5034476;28;20534;-74
2021/05/09 08:15:45;;;;;;;2.10;1.90;;;34.20;40.60;;;;;;5033969;28;20557;-74
2021/05/09 08:18:12;;;;;;;2.50;2.23;;;34.70;40.10;;;;;;5035009;28;20530;-75
2021/05/09 08:20:38;;;;;;;2.37;2.17;;;35.70;37.40;;;;;;5034085;28;20447;-74
2021/05/09 08:23:05;;;;;;;2.57;2.20;;;36.40;36.40;;;;;;5034241;28;20565;-75
2021/05/09 08:25:31;;;;;;;2.40;2.30;;;36.50;34.10;;;;;;5034211;28;20462;-75
2021/05/09 08:27:58;;;;;;;3.80;2.40;;;36.80;34.90;;;;;;5033886;28;20812;-75
2021/05/09 08:30:26;;;;;;;2.20;2.10;;;36.50;33.90;;;;;;5033549;28;20872;-75
2021/05/09 08:32:52;;;;;;;2.50;2.30;;;37.30;34.10;;;;;;5033911;28;20451;-75
2021/05/09 08:35:19;;;;;;;2.13;2.03;;;37.70;31.40;;;;;;5033997;28;20508;-73
2021/05/09 08:37:46;;;;;;;2.17;1.87;;;37.40;33.30;;;;;;5034059;28;20449;-75
2021/05/09 08:40:14;;;;;;;2.63;2.23;;;38.50;30.80;;;;;;5034115;28;20533;-76
2021/05/09 08:42:41;;;;;;;1.83;1.73;;;39.00;29.50;;;;;;5033886;28;20485;-75
2021/05/09 08:45:08;;;;;;;2.60;2.40;;;39.30;29.90;;;;;;5034005;28;20506;-76
2021/05/09 08:47:40;;;;;;;2.60;2.40;;;39.60;29.00;;;;;;5033716;28;20525;-75
2021/05/09 08:50:09;;;;;;;2.53;2.27;;;39.10;30.00;;;;;;5033830;28;20453;-75
2021/05/09 08:52:36;;;;;;;2.00;1.90;;;39.10;30.10;;;;;;5033895;28;20549;-76
2021/05/09 08:55:05;;;;;;;1.90;1.80;;;39.30;28.50;;;;;;5033703;28;20513;-75
2021/05/09 08:57:31;;;;;;;2.37;2.27;;;38.60;28.90;;;;;;5033663;28;20521;-75
2021/05/09 08:59:57;;;;;;;2.10;2.00;;;38.40;29.90;;;;;;5033804;28;20529;-75
2021/05/09 09:02:24;;;;;;;2.17;1.97;;;37.40;29.30;;;;;;5033687;28;20917;-75
2021/05/09 09:04:53;;;;;;;2.07;1.97;;;37.50;29.90;;;;;;5033636;28;20481;-75
2021/05/09 09:07:20;;;;;;;2.40;2.17;;;38.00;29.90;;;;;;5033471;28;20446;-76
2021/05/09 09:09:49;;;;;;;1.80;1.47;;;39.60;29.30;;;;;;5033547;28;20453;-75
2021/05/09 09:12:18;;;;;;;12.10;11.00;;;40.90;27.60;;;;;;5033388;28;20530;-75
2021/05/09 09:14:58;;;;;;;2.90;2.70;;;41.30;27.50;;;;;;5033425;28;20475;-76
2021/05/09 09:17:25;;;;;;;1.80;1.70;;;42.20;26.50;;;;;;5033389;28;20529;-76
2021/05/09 09:20:00;;;;;;;3.03;2.10;;;43.00;26.00;;;;;;5033550;28;20912;-76
2021/05/09 09:22:27;;;;;;;2.43;2.13;;;42.30;27.40;;;;;;5033471;28;20482;-76
2021/05/09 09:25:05;;;;;;;1.40;1.40;;;42.60;26.60;;;;;;5033157;28;20554;-76
2021/05/09 09:27:31;;;;;;;1.60;1.60;;;43.00;25.90;;;;;;5033203;28;20937;-76
2021/05/09 09:30:01;;;;;;;1.77;1.67;;;43.60;25.70;;;;;;5033368;28;20530;-76
2021/05/09 09:32:27;;;;;;;2.00;1.90;;;43.70;24.10;;;;;;5033054;28;20863;-76
2021/05/09 09:34:54;;;;;;;16.97;15.77;;;44.10;24.50;;;;;;5033238;28;20506;-76
2021/05/09 09:37:21;;;;;;;3.70;3.40;;;43.30;24.70;;;;;;5033217;28;20447;-76
2021/05/09 09:39:49;;;;;;;3.40;2.37;;;43.40;24.30;;;;;;5033659;28;20447;-75
2021/05/09 09:42:16;;;;;;;2.30;2.20;;;43.60;24.50;;;;;;5037106;28;20552;-76
2021/05/09 09:44:43;;;;;;;2.27;2.17;;;43.50;24.50;;;;;;5037145;28;20558;-76
2021/05/09 09:47:09;;;;;;;2.10;2.00;;;44.40;23.20;;;;;;5037167;28;20874;-76
2021/05/09 09:49:37;;;;;;;1.73;1.73;;;44.90;23.90;;;;;;5036925;28;20460;-76
2021/05/09 09:52:05;;;;;;;2.93;2.60;;;43.90;23.00;;;;;;5037206;28;20454;-76
2021/05/09 09:54:39;;;;;;;2.63;2.53;;;43.90;23.30;;;;;;5036873;28;20497;-76
2021/05/09 09:57:07;;;;;;;2.60;2.40;;;43.00;22.90;;;;;;5036870;28;20844;-76
2021/05/09 09:59:34;;;;;;;4.00;3.80;;;42.90;24.00;;;;;;5037044;28;20474;-76
2021/05/09 10:02:02;;;;;;;4.23;3.93;;;42.50;24.30;;;;;;5036848;28;20486;-76
2021/05/09 10:04:28;;;;;;;4.80;4.40;;;42.40;25.60;;;;;;5036912;28;20504;-76
2021/05/09 10:06:54;;;;;;;5.83;5.40;;;41.00;24.80;;;;;;5036695;28;20457;-76
2021/05/09 10:09:21;;;;;;;8.90;8.30;;;40.10;25.70;;;;;;5036869;28;20529;-76
2021/05/09 10:11:48;;;;;;;4.40;4.10;;;39.80;26.30;;;;;;5036828;28;20450;-76
2021/05/09 10:14:14;;;;;;;2.50;2.40;;;39.50;26.10;;;;;;5036678;28;20492;-76
2021/05/09 10:16:42;;;;;;;1.97;1.80;;;39.30;26.20;;;;;;5036596;28;20868;-76
2021/05/09 10:19:14;;;;;;;2.20;2.10;;;39.10;26.20;;;;;;5036724;28;20547;-76
2021/05/09 10:21:42;;;;;;;1.50;1.40;;;39.60;26.90;;;;;;5037022;28;20833;-76
2021/05/09 10:24:13;;;;;;;3.53;1.77;;;39.60;24.90;;;;;;5036500;28;20503;-76
2021/05/09 10:26:50;;;;;;;4.10;3.80;;;40.10;25.80;;;;;;5036408;28;20461;-75
2021/05/09 10:29:49;;;;;;;2.10;2.00;;;41.10;25.40;;;;;;5036290;28;20912;-76
2021/05/09 10:32:50;;;;;;;2.83;2.63;;;41.80;25.00;;;;;;5036169;28;20482;-76
2021/05/09 10:35:43;;;;;;;4.00;3.70;;;42.40;24.60;;;;;;5036261;28;20583;-77
2021/05/09 10:38:10;;;;;;;2.93;2.80;;;42.50;23.10;;;;;;5036245;28;20964;-76
2021/05/09 10:40:44;;;;;;;3.37;1.70;;;41.70;24.30;;;;;;5036317;28;20472;-76
2021/05/09 10:43:41;;;;;;;4.00;3.80;;;42.20;23.50;;;;;;5036233;28;20536;-76
2021/05/09 10:46:09;;;;;;;7.50;2.20;;;42.70;23.90;;;;;;5035849;28;21007;-76
2021/05/09 10:48:36;;;;;;;1.93;1.83;;;42.00;22.60;;;;;;5036218;28;20443;-76
2021/05/09 10:51:30;;;;;;;2.10;1.90;;;41.50;23.10;;;;;;5035727;28;20474;-76
2021/05/09 10:54:17;;;;;;;1.70;1.60;;;39.90;24.90;;;;;;5035951;28;20442;-75
2021/05/09 10:56:43;;;;;;;1.70;1.60;;;38.90;24.10;;;;;;5035658;28;20842;-75
2021/05/09 10:59:11;;;;;;;1.23;1.23;;;37.30;24.90;;;;;;5035985;28;20546;-75
2021/05/09 11:01:39;;;;;;;3.40;1.60;;;36.10;26.00;;;;;;5035843;28;20527;-75
2021/05/09 11:04:06;;;;;;;1.90;1.80;;;35.00;25.90;;;;;;5035754;28;20435;-75
2021/05/09 11:06:50;;;;;;;1.70;1.60;;;34.20;27.00;;;;;;5035656;28;20783;-75
2021/05/09 11:09:33;;;;;;;1.47;1.37;;;33.20;27.50;;;;;;5035614;28;20954;-75
2021/05/09 11:12:05;;;;;;;1.60;1.50;;;32.40;29.30;;;;;;5035628;28;20443;-75
2021/05/09 11:14:34;;;;;;;1.63;1.53;;;31.80;29.10;;;;;;5035638;28;20872;-74
2021/05/09 11:17:16;;;;;;;2.23;1.60;;;31.40;28.70;;;;;;5035220;28;20563;-75
2021/05/09 11:19:49;;;;;;;1.50;1.40;;;31.10;29.20;;;;;;5035424;28;20446;-75
2021/05/09 11:22:23;;;;;;;2.53;2.20;;;30.60;29.90;;;;;;5035178;28;20474;-74
2021/05/09 11:25:00;;;;;;;3.50;3.20;;;30.70;30.40;;;;;;5035280;28;20540;-75
2021/05/09 11:27:32;;;;;;;1.63;1.53;;;30.60;31.30;;;;;;5035285;28;20450;-75
2021/05/09 11:30:01;;;;;;;1.70;1.43;;;30.50;30.00;;;;;;5035187;28;20454;-75
2021/05/09 11:32:29;;;;;;;2.00;1.90;;;30.40;32.30;;;;;;5035014;28;20554;-75
2021/05/09 11:34:58;;;;;;;3.83;2.43;;;30.30;34.00;;;;;;5035046;28;20474;-77
2021/05/09 11:37:39;;;;;;;1.50;1.50;;;30.10;33.00;;;;;;5035109;28;20447;-77
2021/05/09 11:40:08;;;;;;;2.60;2.40;;;30.20;33.40;;;;;;5034960;28;20456;-77
2021/05/09 11:42:34;;;;;;;2.00;1.90;;;30.20;31.80;;;;;;5035040;28;20569;-77
2021/05/09 11:45:02;;;;;;;1.97;1.73;;;30.30;31.00;;;;;;5034671;28;20470;-77
2021/05/09 11:47:31;;;;;;;2.03;1.93;;;30.40;31.30;;;;;;5034848;28;20534;-77
2021/05/09 11:49:59;;;;;;;1.50;1.40;;;30.40;31.70;;;;;;5034970;28;20454;-75
2021/05/09 11:52:27;;;;;;;1.60;1.50;;;30.50;31.00;;;;;;5034870;28;20528;-75
2021/05/09 11:54:55;;;;;;;1.70;1.40;;;30.60;30.30;;;;;;5034795;28;20467;-77
2021/05/09 11:57:23;;;;;;;1.67;1.57;;;30.70;32.00;;;;;;5034793;28;20509;-75
2021/05/09 11:59:50;;;;;;;1.00;1.00;;;30.60;29.90;;;;;;5034719;28;20451;-75
2021/05/09 12:02:28;;;;;;;1.90;1.30;;;30.50;30.30;;;;;;5034585;28;20550;-75
2021/05/09 12:05:00;;;;;;;1.63;1.50;;;30.50;30.40;;;;;;5034364;28;20550;-75
2021/05/09 12:07:28;;;;;;;1.40;1.30;;;30.40;30.70;;;;;;5034265;28;20529;-75
2021/05/09 12:10:00;;;;;;;1.50;1.40;;;30.50;31.70;;;;;;5034348;28;20485;-75
2021/05/09 12:12:30;;;;;;;2.50;2.40;;;30.40;30.00;;;;;;5034260;28;20435;-75
2021/05/09 12:15:02;;;;;;;1.90;1.80;;;30.40;30.40;;;;;;5034389;28;20470;-75
2021/05/09 12:17:30;;;;;;;1.60;1.50;;;30.40;33.20;;;;;;5034040;28;20917;-75
2021/05/09 12:19:56;;;;;;;1.47;1.37;;;30.20;31.30;;;;;;5034359;28;20533;-75
2021/05/09 12:22:24;;;;;;;1.70;1.60;;;30.20;32.00;;;;;;5034303;28;20514;-75
2021/05/09 12:24:53;;;;;;;1.50;1.30;;;30.20;30.70;;;;;;5034112;28;20567;-75
2021/05/09 12:27:20;;;;;;;1.40;1.30;;;30.20;30.80;;;;;;5034018;28;20537;-75
2021/05/09 12:29:48;;;;;;;2.00;1.40;;;30.20;30.70;;;;;;5034143;28;20533;-75
2021/05/09 12:32:25;;;;;;;1.43;1.33;;;30.30;30.90;;;;;;5033933;28;20540;-75
2021/05/09 12:35:13;;;;;;;1.43;1.00;;;30.30;30.30;;;;;;5033933;28;20980;-77
2021/05/09 12:37:57;;;;;;;1.50;1.40;;;30.40;31.40;;;;;;5033894;28;20449;-77
2021/05/09 12:40:26;;;;;;;1.50;1.40;;;30.60;30.50;;;;;;5034012;28;20533;-77
2021/05/09 12:42:59;;;;;;;1.43;1.40;;;30.60;30.90;;;;;;5033752;28;20517;-77
2021/05/09 12:45:44;;;;;;;1.67;1.57;;;30.60;32.00;;;;;;5033818;28;20878;-75
2021/05/09 12:48:16;;;;;;;1.80;1.70;;;30.70;30.90;;;;;;5033997;28;20446;-75
2021/05/09 12:50:58;;;;;;;1.40;1.40;;;30.80;30.00;;;;;;5033799;28;20849;-75